createdAt,value
2022-09-15T09:32:37.019Z,16.38
2022-09-15T09:38:51.070Z,16.75
2022-09-15T09:44:15.038Z,17.06
2022-09-15T09:49:48.824Z,17.30
2022-09-15T09:56:17.301Z,17.58
2022-09-15T10:02:43.787Z,17.80
2022-09-15T10:09:07.154Z,17.94
2022-09-15T10:15:46.115Z,18.04
2022-09-15T10:21:52.356Z,18.05
2022-09-15T10:28:18.023Z,18.00
2022-09-15T10:35:06.086Z,17.88
2022-09-15T10:42:15.142Z,17.58
2022-09-15T10:49:03.910Z,17.45
2022-09-15T10:55:53.521Z,17.28
2022-09-15T11:02:29.164Z,17.14
2022-09-15T11:09:14.444Z,17.01
2022-09-15T11:15:56.912Z,16.91
2022-09-15T11:22:38.057Z,16.50
2022-09-15T11:29:20.975Z,16.24
2022-09-15T11:35:53.295Z,16.24
2022-09-15T11:42:20.024Z,16.23
2022-09-15T11:48:51.867Z,16.37
2022-09-15T11:55:48.036Z,16.37
2022-09-15T12:02:38.003Z,16.36
2022-09-15T12:09:23.901Z,16.29
2022-09-15T12:16:07.734Z,16.09
2022-09-15T12:22:51.414Z,15.61
2022-09-15T12:28:53.550Z,15.38
2022-09-15T12:35:43.721Z,15.33
2022-09-15T12:42:29.817Z,15.12
2022-09-15T12:49:15.568Z,15.18
2022-09-15T12:55:58.776Z,15.48
2022-09-15T13:02:48.898Z,15.64
2022-09-15T13:09:16.015Z,15.83
2022-09-15T13:15:08.168Z,15.84
2022-09-15T13:20:36.645Z,15.86
2022-09-15T13:26:00.988Z,15.73
2022-09-15T13:31:35.888Z,15.64
2022-09-15T13:43:43.402Z,16.01
2022-09-15T13:49:56.424Z,15.82
2022-09-15T13:55:42.713Z,15.55
2022-09-15T14:01:33.561Z,15.35
2022-09-15T14:07:19.218Z,15.12
2022-09-15T14:12:44.326Z,15.11
2022-09-15T14:18:20.584Z,15.11
2022-09-15T14:24:27.926Z,15.20
2022-09-15T14:29:58.023Z,15.28
2022-09-15T14:36:19.217Z,15.27
2022-09-15T14:43:00.807Z,15.28
2022-09-15T14:49:10.727Z,15.25
2022-09-15T14:54:54.901Z,15.19
2022-09-15T15:01:23.050Z,15.14
2022-09-15T15:07:23.912Z,15.13
2022-09-15T15:13:13.839Z,15.03
2022-09-15T15:18:57.539Z,14.90
2022-09-15T15:24:24.947Z,14.82
2022-09-15T15:30:27.323Z,14.97
2022-09-15T15:36:09.957Z,14.94
2022-09-15T15:41:42.026Z,14.87
2022-09-15T15:48:12.959Z,14.88
2022-09-15T15:54:56.102Z,14.78
2022-09-15T16:01:43.867Z,14.77
2022-09-15T16:07:33.300Z,14.87
2022-09-15T16:13:36.707Z,14.95
2022-09-15T16:19:11.189Z,15.08
2022-09-15T16:25:52.050Z,14.94
2022-09-15T16:32:35.445Z,14.88
2022-09-15T16:39:18.481Z,14.85
2022-09-15T16:53:40.632Z,14.58
2022-09-15T17:00:04.281Z,14.45
2022-09-15T17:06:34.258Z,14.23
2022-09-15T17:13:17.852Z,14.13
2022-09-15T17:20:01.716Z,14.23
2022-09-15T19:49:35.683Z,14.42
2022-09-15T19:55:19.400Z,14.36
2022-09-15T20:00:48.539Z,14.33
2022-09-15T20:06:32.649Z,14.33
2022-09-15T20:12:32.983Z,14.25
2022-09-15T20:18:30.815Z,14.15
2022-09-15T20:36:38.996Z,13.85
2022-09-15T20:42:23.502Z,13.80
2022-09-15T20:48:06.674Z,13.77
2022-09-15T20:53:51.824Z,13.80
2022-09-15T21:12:19.329Z,14.06
2022-09-15T21:18:28.007Z,14.66
2022-09-15T21:25:32.705Z,15.30
